Flight Track Log - Related Links

Times and Time Zones

All times are in EST time to prevent confusion due to time zone crossing. See the SWA418 flight status page for this flight to view local times or setup timezone preferences in your user account.

Time Position Orientation Groundspeed Altitude Reporting Facility
EST Latitude Longitude Course Direction KTS MPH feet Rate Location/Type
Wed 10:49:59 PM 28.0000 -82.5333 360° North 144 166 700  Level Tampa TRACON
Wed 10:50:17 PM 28.0000 -82.5333 270° West 162 186 1,300 1,746 Climbing Tampa TRACON
Wed 10:52:13 PM 28.1286 -82.5442 356° North 253 291 4,600 2,284 Climbing Jacksonville Center
Wed 10:53:13 PM 28.2100 -82.5558 353° North 266 306 8,000 3,450 Climbing Jacksonville Center
Wed 10:54:13 PM 28.2956 -82.5719 351° North 293 337 11,500 3,050 Climbing Jacksonville Center
Wed 10:55:13 PM 28.3978 -82.5811 355° North 329 379 14,100 2,700 Climbing Jacksonville Center
Wed 10:56:13 PM 28.5044 -82.5856 358° North 361 415 16,900 2,650 Climbing Jacksonville Center
Wed 10:57:13 PM 28.6192 -82.5875 359° North 391 450 19,400 2,350 Climbing Jacksonville Center
Wed 10:58:13 PM 28.7236 -82.5967 356° North 413 475 21,600 2,400 Climbing Jacksonville Center
Wed 10:59:13 PM 28.8425 -82.6153 352° North 425 489 24,200 2,250 Climbing Jacksonville Center
Wed 11:00:13 PM 28.9656 -82.6314 353° North 430 495 26,100 2,000 Climbing Jacksonville Center
Wed 11:01:13 PM 29.0889 -82.6478 353° North 437 503 28,200 1,850 Climbing Jacksonville Center
Wed 11:02:13 PM 29.2161 -82.6642 354° North 448 516 29,800 1,500 Climbing Jacksonville Center
Wed 11:03:13 PM 29.3497 -82.6831 353° North 458 527 31,200 1,200 Climbing Jacksonville Center
Wed 11:04:13 PM 29.4981 -82.6992 355° North 479 551 32,200 1,400 Climbing Jacksonville Center
Wed 11:05:13 PM 29.6317 -82.6967 North 477 549 34,000 1,700 Climbing Jacksonville Center
Wed 11:06:13 PM 29.7653 -82.6939 North 477 549 35,600 1,450 Climbing Jacksonville Center
Wed 11:07:13 PM 29.8969 -82.6914 North 477 549 36,900 1,200 Climbing Jacksonville Center
Wed 11:08:13 PM 30.0283 -82.6886 North 472 543 38,000 1,050 Climbing Jacksonville Center
Wed 11:09:13 PM 30.1600 -82.6858 North 472 543 39,000 500 Climbing Jacksonville Center
Wed 11:10:13 PM 30.2936 -82.6856 360° North 472 543 39,000  Level Jacksonville Center
Wed 11:11:13 PM 30.4272 -82.6853 360° North 477 549 39,000  Level Jacksonville Center
Wed 11:12:13 PM 30.5314 -82.6803 North 472 543 39,000  Level Jacksonville Center
Wed 11:13:13 PM 30.6903 -82.6583 North 472 543 39,000  Level Jacksonville Center
Wed 11:14:13 PM 30.8236 -82.6336 North 477 549 39,000  Level Jacksonville Center
Wed 11:15:13 PM 30.9572 -82.6117 North 484 557 39,000  Level Jacksonville Center
Wed 11:16:13 PM 31.0950 -82.5869 North 484 557 39,000  Level Jacksonville Center
Wed 11:17:13 PM 31.2244 -82.5669 North 478 550 39,000  Level Jacksonville Center
Wed 11:18:51 PM 31.4450 -82.5250 North 498 573 39,000  Level Atlanta Center
Wed 11:19:51 PM 31.5783 -82.5008 North 498 573 39,000  Level Atlanta Center
Wed 11:20:51 PM 31.7136 -82.4739 10° North 493 567 39,000  Level Atlanta Center
Wed 11:21:51 PM 31.8489 -82.4350 14° North 493 567 39,000  Level Atlanta Center
Wed 11:22:51 PM 31.9800 -82.4008 12° North 488 562 39,000  Level Atlanta Center
Wed 11:23:51 PM 32.1172 -82.3639 13° North 488 562 39,000  Level Atlanta Center
Wed 11:24:51 PM 32.2525 -82.3319 11° North 488 562 39,000  Level Atlanta Center
Wed 11:25:51 PM 32.3833 -82.2950 13° North 483 556 39,000  Level Atlanta Center
Wed 11:26:51 PM 32.5061 -82.2631 12° North 492 566 39,000  Level Atlanta Center
Wed 11:27:51 PM 32.6392 -82.2308 12° North 492 566 39,000  Level Atlanta Center
Wed 11:28:51 PM 32.7764 -82.1933 13° North 492 566 39,000  Level Atlanta Center
Wed 11:29:51 PM 32.9136 -82.1583 12° North 492 566 39,000  Level Atlanta Center
Wed 11:30:51 PM 33.0486 -82.1206 13° North 492 566 39,000  Level Atlanta Center
Wed 11:31:51 PM 33.1881 -82.0853 12° North 497 572 39,000  Level Atlanta Center
Wed 11:32:51 PM 33.3253 -82.0475 13° North 502 578 39,000  Level Atlanta Center
Wed 11:33:51 PM 33.4644 -82.0094 13° North 507 583 39,000  Level Atlanta Center
Wed 11:34:51 PM 33.6036 -81.9711 13° North 507 583 39,000  Level Atlanta Center
Wed 11:35:51 PM 33.7428 -81.9353 12° North 507 583 39,000  Level Atlanta Center
Wed 11:36:51 PM 33.8944 -81.8942 13° North 507 583 39,000  Level Atlanta Center
Wed 11:37:51 PM 34.0294 -81.8556 13° North 507 583 39,000  Level Atlanta Center
Wed 11:38:51 PM 34.1667 -81.8194 12° North 501 577 39,000  Level Atlanta Center
Wed 11:39:51 PM 34.3017 -81.7858 12° North 501 577 39,000  Level Atlanta Center
Wed 11:40:51 PM 34.4367 -81.7494 13° North 496 571 39,000  Level Atlanta Center
Wed 11:41:51 PM 34.5672 -81.7106 14° North 496 571 39,000  Level Atlanta Center
Wed 11:42:51 PM 34.7022 -81.6764 12° North 491 565 39,000  Level Atlanta Center
Wed 11:43:51 PM 34.8186 -81.6478 11° North 484 557 39,000  Level Atlanta Center
Wed 11:44:51 PM 34.9494 -81.6086 14° North 484 557 39,000  Level Atlanta Center
Wed 11:45:51 PM 35.0781 -81.5719 13° North 484 557 39,000  Level Atlanta Center
Wed 11:46:51 PM 35.2086 -81.5375 12° North 479 551 39,000  Level Atlanta Center
Wed 11:47:51 PM 35.3414 -81.5003 13° North 479 551 39,000  Level Atlanta Center
Wed 11:48:51 PM 35.4742 -81.4631 13° North 485 558 39,000  Level Atlanta Center
Wed 11:49:51 PM 35.6050 -81.4308 11° North 485 558 39,000  Level Atlanta Center
Wed 11:50:51 PM 35.7417 -81.3881 14° North 490 564 39,000  Level Atlanta Center
Wed 11:51:51 PM 35.8722 -81.3481 14° North 485 558 39,000  Level Atlanta Center
Wed 11:52:51 PM 36.0050 -81.3103 13° North 485 558 39,000  Level Atlanta Center
Wed 11:53:51 PM 36.1336 -81.2725 13° North 485 558 39,000  Level Atlanta Center
Wed 11:54:51 PM 36.2681 -81.2344 13° North 485 558 39,000  Level Atlanta Center
Wed 11:55:51 PM 36.4008 -81.1936 14° North 485 558 39,000  Level Atlanta Center
Wed 11:56:51 PM 36.5333 -81.1553 13° North 485 558 39,000  Level Atlanta Center
Wed 11:57:51 PM 36.6636 -81.1169 13° North 485 558 39,000  Level Atlanta Center
Wed 11:58:51 PM 36.7942 -81.0786 13° North 485 558 39,000  Level Atlanta Center
Wed 11:59:51 PM 36.9392 -81.0394 12° North 480 552 39,000  Level Atlanta Center
Thu 12:01:47 AM 37.1800 -80.9689 13° North 487 560 39,000  Level Indianapolis Center
Thu 12:02:47 AM 37.3089 -80.9306 13° North 487 560 39,000  Level Indianapolis Center
Thu 12:03:47 AM 37.4650 -80.8833 14° North 489 563 39,000  Level Indianapolis Center
Thu 12:04:47 AM 37.5953 -80.8453 13° North 491 565 39,000  Level Indianapolis Center
Thu 12:05:48 AM 37.7258 -80.8061 13° North 493 567 39,000  Level Indianapolis Center
Thu 12:06:48 AM 37.8550 -80.7672 13° North 493 567 39,000  Level Indianapolis Center
Thu 12:07:48 AM 37.9878 -80.7269 13° North 492 566 39,000  Level Indianapolis Center
Thu 12:08:48 AM 38.1206 -80.6864 14° North 492 566 39,000  Level Indianapolis Center
Thu 12:09:49 AM 38.2539 -80.6458 13° North 492 566 39,000  Level Indianapolis Center
Thu 12:10:36 AM 38.3578 -80.6203 11° North 491 565 39,000  Level Washington Center
Thu 12:11:35 AM 38.4908 -80.5789 14° North 491 565 39,000  Level Washington Center
Thu 12:12:36 AM 38.6386 -80.5356 13° North 491 565 39,000  Level Washington Center
Thu 12:13:49 AM 38.7850 -80.4814 16° North 494 568 39,000  Level Indianapolis Center
Thu 12:14:50 AM 38.9206 -80.4408 13° North 500 575 39,000  Level Indianapolis Center
Thu 12:15:50 AM 39.0561 -80.3983 14° North 501 577 39,000  Level Indianapolis Center
Thu 12:16:50 AM 39.1908 -80.3561 14° North 501 577 39,000  Level Indianapolis Center
Thu 12:18:47 AM 39.4586 -80.2733 13° North 506 582 39,000  Level Cleveland Center
Thu 12:19:47 AM 39.5936 -80.2325 13° North 501 577 39,000  Level Cleveland Center
Thu 12:20:47 AM 39.7303 -80.1894 14° North 505 581 39,000  Level Cleveland Center
Thu 12:21:48 AM 39.8639 -80.1469 14° North 500 575 39,000  Level Cleveland Center
Thu 12:22:48 AM 39.9972 -80.1042 14° North 496 571 39,000  Level Cleveland Center
Thu 12:23:48 AM 40.1289 -80.0628 14° North 491 565 39,000  Level Cleveland Center
Thu 12:24:49 AM 40.2589 -80.0203 14° North 490 564 39,000  Level Cleveland Center
Thu 12:25:49 AM 40.4122 -79.9706 14° North 486 559 39,000  Level Cleveland Center
Thu 12:26:49 AM 40.5403 -79.9281 14° North 485 558 39,000  Level Cleveland Center
Thu 12:27:50 AM 40.6694 -79.8853 14° North 483 556 39,000  Level Cleveland Center
Thu 12:28:50 AM 40.7983 -79.8431 14° North 480 552 39,000 -100 Level Cleveland Center
Thu 12:29:50 AM 40.9267 -79.8014 14° North 477 549 38,800 -1,339 Descending Cleveland Center
Thu 12:30:51 AM 41.0536 -79.7617 13° North 471 542 36,300 -2,529 Descending Cleveland Center
Thu 12:31:51 AM 41.1736 -79.7217 14° North 472 543 33,700 -2,800 Descending Cleveland Center
Thu 12:32:51 AM 41.3050 -79.6769 14° North 482 555 30,700 -2,750 Descending Cleveland Center
Thu 12:33:51 AM 41.4361 -79.6333 14° North 484 557 28,200 -2,380 Descending Cleveland Center
Thu 12:34:52 AM 41.5617 -79.5897 15° North 470 541 25,900 -2,281 Descending Cleveland Center
Thu 12:35:52 AM 41.6811 -79.5478 15° North 448 516 23,600 -2,050 Descending Cleveland Center
Thu 12:36:52 AM 41.7936 -79.4819 24° Northeast 438 504 21,800 -1,835 Descending Cleveland Center
Thu 12:37:53 AM 41.9008 -79.4161 25° Northeast 423 487 19,900 -1,884 Descending Cleveland Center
Thu 12:38:53 AM 42.0033 -79.3542 24° Northeast 406 467 18,000 -1,750 Descending Cleveland Center
Thu 12:39:53 AM 42.1031 -79.2933 24° Northeast 393 452 16,400 -1,587 Descending Cleveland Center
Thu 12:40:54 AM 42.1992 -79.2356 24° Northeast 380 437 14,800 -1,686 Descending Cleveland Center
Thu 12:41:54 AM 42.2925 -79.1783 24° Northeast 369 425 13,000 -1,800 Descending Cleveland Center
Thu 12:42:54 AM 42.3997 -79.1122 24° Northeast 354 407 11,200 -1,339 Descending Cleveland Center
Thu 12:43:55 AM 42.4847 -79.0739 18° North 327 376 10,300 -1,240 Descending Cleveland Center
Thu 12:44:55 AM 42.5650 -79.0492 13° North 305 351 8,700 -1,750 Descending Cleveland Center
Thu 12:45:55 AM 42.6478 -79.0258 12° North 295 339 6,800 -1,636 Descending Cleveland Center
Thu 12:46:56 AM 42.7233 -79.0064 11° North 288 331 5,400 -1,041 Descending Cleveland Center
Thu 12:47:56 AM 42.7725 -78.9472 41° Northeast 252 290 4,700 -600 Descending Cleveland Center
Thu 12:48:56 AM 42.8156 -78.8931 43° Northeast 211 243 4,200 -800 Descending Cleveland Center
Thu 12:49:56 AM 42.8500 -78.8481 44° Northeast 187 215 3,100 -942 Descending Cleveland Center
Thu 12:50:57 AM 42.8814 -78.8072 44° Northeast 160 184 2,300 -645 Descending Cleveland Center
Thu 12:51:57 AM 42.8983 -78.7856 43° Northeast 124 143 1,800 -500 Descending Cleveland Center
Thu 12:54:00 AM 42.9333 -78.7167 28° Northeast  Level FlightAware Approximate
Thu 01:01:00 AM 42.9404 -78.7306 28° Northeast  Level Estimated

Login

Don't have an account? Register now (free) for customized features, flight alerts, and more!